Terminal Aerodrome Forecast
Issued by NWS Cleveland, OH

Home | Current Version | Previous Version | Graphics & Text | Print | Product List | Glossary On
Versions: 1 2 3 4 5 6 7 8 9 10 11 12 13 14 15
000
FTUS41 KCLE 092300
TAFMFD
TAF
KMFD 092336Z 1000/1024 20005KT P6SM VCSH BKN035
     FM100200 33005KT P6SM SCT040
      TEMPO 1010/1013 5SM BR=

USA.gov is the U.S. government's official web portal to all federal, state and local government web resources and services.